ジッダ の空港の天気 - METARとTAF

キング・アブドゥルアズィーズ国際空港(ジッダ) ( OEJN / JED ) - サウジアラビア ジッダ
飛行場実況気象(Metar)
観測時間07/28 15:00 AST (07/28 12:00 UTC)
風向・風速西北西 8m/s
視程10km以上
天気現象
なし
気温36℃
湿度44%
気圧1002hPa
METAROEJN 281200Z 30015KT CAVOK 36/22 Q1002 NOSIG
過去の天気等 Google飛行場航空写真 Wunderground天気予報

過去48時間のMETAR

飛行場予報(TAF)
発表時間: 7/28 14:00 AST (7/28 11:00 UTC)
予報対象時間: 28日15時 AST ~ 29日21時 AST
風向・風速西北西 4m/s 瞬間風速 9m/s
視程7,000m
全天の4割程度の雲 雲底高度 1,220m
全天の4割程度の雲 雲底高度 3,050m
28日15時 AST ~ 28日20時 AST に 確率 30% で一時的に
少しの積乱雲 雲底高度 1,070m
TAF OEJN 281100Z 2812/2918 30008G18KT 7000 SCT040 SCT100
PROB30 TEMPO 2812/2817 FEW035CB